KMHK

Manhattan Regional Airport

Manhattan, Kansas, USA
METAR KMHK 231052Z AUTO 03005KT 10SM CLR 09/07 A3026 RMK AO2 SLP245 T00940067 $
Observed Flight Rules
Oct-23 @ 10:52 UTC (an hour ago) Visual Flight Rules
Wind Visibility Clouds
30° at 5 knots 10 miles
  • Clear skies
Temperatures Readings
Current 9°C / 48°F
Dewpoint 7°C / 45°F
Humidity 87%
Altimeter 30.26" Hg
Pressure 1024.5 hPa
Elevation 317
METAR KMHK 231052Z AUTO 03005KT 10SM CLR 09/07 A3026 RMK AO2 SLP245 T00940067 $
Observed Flight Rules
Oct-23 @ 10:52 UTC
(an hour ago)
VFR
Wind Visibility
30° at 5 knots 10 miles
Clouds
  • Clear skies
Temperature Dewpoint
9°C / 48°F 7°C / 45°F
Humidity Altimeter Pressure
87% 30.26" Hg 1024.5 hPa